Time;durP1;ratioP1;P1;durP2;ratioP2;P2;SDS_P1;SDS_P2;PMS_P1;PMS_P2;Temp;Humidity;BMP_temperature;BMP_pressure;BME280_temperature;BME280_humidity;BME280_pressure;Samples;Min_cycle;Max_cycle;Signal;HPM_P1;HPM_P2
2023/06/27 00:00:12;;;;;;;2.10;1.60;;;14.90;66.80;;;;;;2023389;29;20569;-66
2023/06/27 00:01:12;;;;;;;3.30;1.60;;;14.90;67.00;;;;;;2034690;28;20185;-65
2023/06/27 00:02:13;;;;;;;2.83;1.60;;;14.90;66.40;;;;;;2030917;29;20779;-65
2023/06/27 00:03:14;;;;;;;3.35;1.92;;;14.90;66.10;;;;;;2037191;29;20176;-65
2023/06/27 00:04:15;;;;;;;3.73;1.70;;;14.80;66.00;;;;;;2034243;29;20718;-65
2023/06/27 00:05:15;;;;;;;2.50;1.60;;;14.90;66.00;;;;;;2030328;29;20205;-65
2023/06/27 00:06:20;;;;;;;2.37;1.37;;;15.00;66.30;;;;;;2030607;29;20534;-65
2023/06/27 00:07:27;;;;;;;3.72;1.80;;;15.00;66.10;;;;;;2033232;29;20320;-65
2023/06/27 00:08:28;;;;;;;3.05;1.50;;;14.90;66.30;;;;;;2025252;29;20306;-65
2023/06/27 00:09:28;;;;;;;3.70;1.70;;;14.90;66.40;;;;;;2025283;29;21364;-65
2023/06/27 00:10:29;;;;;;;2.33;1.30;;;14.90;66.30;;;;;;2026120;29;20300;-65
2023/06/27 00:11:30;;;;;;;3.87;1.77;;;14.90;67.00;;;;;;2025683;29;20600;-65
2023/06/27 00:12:31;;;;;;;3.17;1.80;;;14.80;67.20;;;;;;2026436;29;20248;-65
2023/06/27 00:13:31;;;;;;;1.87;1.50;;;14.80;67.20;;;;;;2025495;29;20863;-65
2023/06/27 00:14:33;;;;;;;3.83;1.73;;;14.80;67.50;;;;;;2024937;29;20729;-65
2023/06/27 00:15:34;;;;;;;4.15;1.90;;;14.90;67.30;;;;;;2037488;29;20284;-65
2023/06/27 00:16:36;;;;;;;3.38;1.40;;;14.80;67.40;;;;;;2037232;29;20224;-65
2023/06/27 00:17:40;;;;;;;2.97;1.60;;;14.80;67.50;;;;;;2024518;29;20221;-65
2023/06/27 00:18:48;;;;;;;2.95;1.70;;;14.90;67.50;;;;;;2025865;29;20225;-65
2023/06/27 00:19:49;;;;;;;3.17;1.45;;;15.00;67.50;;;;;;2036097;29;20327;-65
2023/06/27 00:20:50;;;;;;;3.45;1.80;;;15.00;67.70;;;;;;2035268;29;20224;-65
2023/06/27 00:21:52;;;;;;;4.00;1.70;;;14.90;68.30;;;;;;2031869;29;20225;-65
2023/06/27 00:22:52;;;;;;;3.45;1.70;;;14.90;67.80;;;;;;2016650;29;20226;-65
2023/06/27 00:23:55;;;;;;;3.03;1.47;;;14.90;67.70;;;;;;2024368;29;20245;-65
2023/06/27 00:24:56;;;;;;;3.28;1.60;;;14.90;67.50;;;;;;2024007;29;20743;-65
2023/06/27 00:25:57;;;;;;;2.53;1.57;;;14.90;67.60;;;;;;2024113;29;20257;-65
2023/06/27 00:26:58;;;;;;;5.20;1.70;;;14.80;67.50;;;;;;2024971;29;20225;-65
2023/06/27 00:27:58;;;;;;;2.10;1.50;;;14.80;67.60;;;;;;2037197;29;20240;-65
2023/06/27 00:28:59;;;;;;;4.63;2.17;;;14.80;67.80;;;;;;2037664;29;20228;-65
2023/06/27 00:30:00;;;;;;;5.10;1.50;;;14.80;67.70;;;;;;2037628;29;20236;-65
2023/06/27 00:31:01;;;;;;;3.50;1.70;;;14.80;67.60;;;;;;2037085;29;20713;-65
2023/06/27 00:32:02;;;;;;;2.88;1.70;;;14.90;67.90;;;;;;2023364;29;20566;-66
2023/06/27 00:33:03;;;;;;;5.50;1.93;;;14.90;68.00;;;;;;2021971;29;20316;-66
2023/06/27 00:34:04;;;;;;;4.10;1.70;;;14.80;67.80;;;;;;2029711;29;20221;-65
2023/06/27 00:35:05;;;;;;;3.93;1.60;;;14.90;67.70;;;;;;2030274;29;20197;-65
2023/06/27 00:36:06;;;;;;;4.90;1.83;;;14.90;67.60;;;;;;2023963;29;20232;-66
2023/06/27 00:37:06;;;;;;;2.00;1.60;;;14.80;67.70;;;;;;2026197;29;20268;-65
2023/06/27 00:38:07;;;;;;;4.60;1.73;;;14.90;67.60;;;;;;2029797;29;20264;-66
2023/06/27 00:39:08;;;;;;;3.13;1.80;;;14.80;67.60;;;;;;2023630;29;20269;-65
2023/06/27 00:40:09;;;;;;;3.40;1.90;;;14.70;68.20;;;;;;2025774;29;20199;-65
2023/06/27 00:41:10;;;;;;;3.97;1.90;;;14.70;68.40;;;;;;2025656;29;20214;-65
2023/06/27 00:42:10;;;;;;;3.17;1.77;;;14.70;68.70;;;;;;2029552;29;20637;-65
2023/06/27 00:43:11;;;;;;;4.77;2.47;;;14.60;68.90;;;;;;2022838;29;20196;-65
2023/06/27 00:44:12;;;;;;;4.57;1.50;;;14.60;68.80;;;;;;2031014;29;20196;-65
2023/06/27 00:45:13;;;;;;;5.53;1.70;;;14.60;69.70;;;;;;2033977;29;20193;-65
2023/06/27 00:46:36;;;;;;;3.43;1.97;;;14.50;70.00;;;;;;2029311;29;20181;-65
2023/06/27 00:47:37;;;;;;;4.05;1.75;;;14.50;70.20;;;;;;2024524;29;20301;-65
2023/06/27 00:48:38;;;;;;;3.05;1.60;;;14.50;70.60;;;;;;2021723;29;20296;-65
2023/06/27 00:49:39;;;;;;;3.25;1.63;;;14.30;70.70;;;;;;2014493;29;20289;-65
2023/06/27 00:50:40;;;;;;;2.77;1.63;;;14.30;70.80;;;;;;2025761;29;20544;-65
2023/06/27 00:51:42;;;;;;;3.93;1.80;;;14.30;70.60;;;;;;2025475;29;20365;-65
2023/06/27 00:52:43;;;;;;;3.00;1.60;;;14.20;71.10;;;;;;2025508;29;20231;-65
2023/06/27 00:53:43;;;;;;;3.58;1.52;;;14.20;71.30;;;;;;2017655;29;20231;-65
2023/06/27 00:54:44;;;;;;;4.57;1.77;;;14.30;71.00;;;;;;2025491;29;20221;-65
2023/06/27 00:55:45;;;;;;;4.17;1.53;;;14.30;70.90;;;;;;2024869;29;20308;-65
2023/06/27 00:56:48;;;;;;;3.93;1.97;;;14.30;70.90;;;;;;2025790;29;20261;-65
2023/06/27 00:57:50;;;;;;;5.05;1.77;;;14.40;71.30;;;;;;2025380;29;20225;-65
2023/06/27 00:58:51;;;;;;;3.58;1.70;;;14.30;71.30;;;;;;2017150;29;20228;-65
2023/06/27 00:59:53;;;;;;;4.27;2.00;;;14.30;71.10;;;;;;2024435;29;20324;-65
2023/06/27 01:00:54;;;;;;;5.22;2.53;;;14.20;71.10;;;;;;2024623;29;20221;-65
2023/06/27 01:01:54;;;;;;;2.73;1.40;;;14.30;71.30;;;;;;2025413;29;20221;-65
2023/06/27 01:02:55;;;;;;;3.73;1.60;;;14.30;71.80;;;;;;2036492;29;21018;-65
2023/06/27 01:03:56;;;;;;;4.40;1.63;;;14.30;71.80;;;;;;2032457;29;20217;-65
2023/06/27 01:04:57;;;;;;;2.90;1.70;;;14.50;71.10;;;;;;2024394;29;20232;-65
2023/06/27 01:06:02;;;;;;;2.43;1.50;;;14.50;70.80;;;;;;2020439;29;20253;-65
2023/06/27 01:07:15;;;;;;;3.67;2.28;;;14.60;70.60;;;;;;2019960;29;20229;-66
2023/06/27 01:08:27;;;;;;;4.32;1.88;;;14.60;70.70;;;;;;2017565;29;20206;-65
2023/06/27 01:09:52;;;;;;;3.38;1.83;;;14.60;70.90;;;;;;2023686;29;20340;-65
2023/06/27 01:11:16;;;;;;;4.28;1.88;;;14.70;70.60;;;;;;2029290;29;20216;-65
2023/06/27 01:12:24;;;;;;;2.53;1.70;;;14.60;71.10;;;;;;2027985;29;20248;-65
2023/06/27 01:13:33;;;;;;;3.50;1.73;;;14.60;71.50;;;;;;2027210;29;20244;-65
2023/06/27 01:14:34;;;;;;;1.70;1.40;;;14.50;72.50;;;;;;2036044;29;20604;-65
2023/06/27 01:15:36;;;;;;;1.75;1.50;;;14.40;73.90;;;;;;2033312;29;20314;-65
2023/06/27 01:16:38;;;;;;;2.92;1.83;;;14.50;72.70;;;;;;2027924;29;20315;-65
2023/06/27 01:17:39;;;;;;;3.88;1.77;;;14.50;72.30;;;;;;2022369;29;20229;-65
2023/06/27 01:18:41;;;;;;;2.92;1.65;;;14.50;73.10;;;;;;2018748;29;20233;-65
2023/06/27 01:19:45;;;;;;;2.35;1.98;;;14.40;72.50;;;;;;2021177;29;20727;-65
2023/06/27 01:20:46;;;;;;;5.00;1.65;;;14.50;72.90;;;;;;2029609;29;20228;-65
2023/06/27 01:21:54;;;;;;;3.38;2.50;;;14.50;72.40;;;;;;2037566;29;20228;-65
2023/06/27 01:23:18;;;;;;;5.43;1.80;;;14.50;72.30;;;;;;2022923;29;20217;-65
2023/06/27 01:24:19;;;;;;;2.67;1.70;;;14.60;71.70;;;;;;2019882;29;20232;-65
2023/06/27 01:25:19;;;;;;;3.43;1.73;;;14.60;71.00;;;;;;2029516;29;20299;-65
2023/06/27 01:26:21;;;;;;;4.37;1.80;;;14.60;71.60;;;;;;2035647;29;20438;-65
2023/06/27 01:27:22;;;;;;;3.72;1.70;;;14.70;71.30;;;;;;2025000;29;20233;-65
2023/06/27 01:28:23;;;;;;;4.23;2.00;;;14.70;70.90;;;;;;2021402;29;20245;-65
2023/06/27 01:29:26;;;;;;;3.27;1.47;;;14.80;70.90;;;;;;2029232;29;20677;-65
2023/06/27 01:30:26;;;;;;;3.45;1.60;;;14.80;70.50;;;;;;2028176;29;20232;-65
2023/06/27 01:31:41;;;;;;;2.93;1.63;;;14.80;69.80;;;;;;2033331;29;20240;-65
2023/06/27 01:33:01;;;;;;;3.53;1.65;;;14.70;70.10;;;;;;2021514;29;20284;-65
2023/06/27 01:34:34;;;;;;;3.20;1.50;;;14.80;71.00;;;;;;2027675;29;20217;-66
2023/06/27 01:35:46;;;;;;;3.75;1.65;;;14.70;71.20;;;;;;2029493;29;20228;-65
2023/06/27 01:37:06;;;;;;;2.05;1.70;;;14.60;71.10;;;;;;2025626;29;20323;-65
2023/06/27 01:38:14;;;;;;;3.38;1.60;;;14.70;70.80;;;;;;2032338;29;20228;-65
2023/06/27 01:39:40;;;;;;;2.13;1.38;;;14.80;70.50;;;;;;2025873;29;20317;-65
2023/06/27 01:40:43;;;;;;;4.43;2.00;;;14.80;69.80;;;;;;2025920;29;20243;-65
2023/06/27 01:41:48;;;;;;;2.65;1.40;;;14.90;70.40;;;;;;2036169;29;20286;-65
2023/06/27 01:42:58;;;;;;;3.60;1.70;;;14.90;69.80;;;;;;2027395;29;20231;-65
2023/06/27 01:44:03;;;;;;;3.15;1.52;;;14.90;69.80;;;;;;2025935;29;20232;-65
2023/06/27 01:45:06;;;;;;;2.40;1.50;;;14.90;69.00;;;;;;2027850;29;20284;-66
2023/06/27 01:46:09;;;;;;;2.15;1.50;;;14.90;69.30;;;;;;2025164;29;20185;-66
2023/06/27 01:47:11;;;;;;;2.90;1.60;;;14.90;69.60;;;;;;2025541;29;20191;-65
2023/06/27 01:48:12;;;;;;;5.55;1.40;;;14.90;69.60;;;;;;2025118;29;20213;-65
2023/06/27 01:49:14;;;;;;;3.28;1.58;;;14.80;69.90;;;;;;2026121;29;20191;-65
2023/06/27 01:50:14;;;;;;;4.30;1.70;;;14.80;70.80;;;;;;2028649;29;20253;-65
2023/06/27 01:51:15;;;;;;;4.03;1.70;;;14.70;70.80;;;;;;2028044;29;20189;-65
2023/06/27 01:52:18;;;;;;;4.37;1.90;;;14.70;71.00;;;;;;2025665;29;20678;-65
2023/06/27 01:53:18;;;;;;;3.90;1.85;;;14.60;71.00;;;;;;2029509;29;20912;-66
2023/06/27 01:54:19;;;;;;;1.83;1.60;;;14.60;70.90;;;;;;2029735;29;20195;-65
2023/06/27 01:55:20;;;;;;;3.60;1.67;;;14.60;70.90;;;;;;2035455;29;20225;-66
2023/06/27 01:56:20;;;;;;;3.03;1.40;;;14.70;70.80;;;;;;2032459;29;20316;-65
2023/06/27 01:57:21;;;;;;;2.97;1.83;;;14.60;70.80;;;;;;2023490;29;20308;-65
2023/06/27 01:58:22;;;;;;;2.33;1.50;;;14.60;71.20;;;;;;2025051;29;20324;-65
2023/06/27 01:59:23;;;;;;;4.60;1.70;;;14.60;70.90;;;;;;2030090;29;20232;-65
2023/06/27 02:00:24;;;;;;;3.17;1.50;;;14.60;70.60;;;;;;2036969;29;20264;-65
2023/06/27 02:01:25;;;;;;;3.45;1.92;;;14.70;70.70;;;;;;2036739;29;20247;-65
2023/06/27 02:02:26;;;;;;;6.03;1.80;;;14.70;70.80;;;;;;2033263;29;20228;-65
2023/06/27 02:03:27;;;;;;;3.13;1.70;;;14.70;70.40;;;;;;2029427;29;20237;-65
2023/06/27 02:04:27;;;;;;;3.23;1.50;;;14.50;70.50;;;;;;2029780;29;20229;-65
2023/06/27 02:05:28;;;;;;;2.30;1.60;;;14.50;71.90;;;;;;2027401;29;20237;-65
2023/06/27 02:06:29;;;;;;;2.03;1.37;;;14.40;72.00;;;;;;2034182;29;20304;-65
2023/06/27 02:07:29;;;;;;;4.87;2.20;;;14.40;72.10;;;;;;2034315;29;20300;-65
2023/06/27 02:08:30;;;;;;;3.50;1.73;;;14.40;71.90;;;;;;2035196;29;20232;-65
2023/06/27 02:09:31;;;;;;;3.47;1.57;;;14.40;71.90;;;;;;2033371;29;20302;-65
2023/06/27 02:10:32;;;;;;;3.65;1.70;;;14.50;71.80;;;;;;2028422;29;20312;-66
2023/06/27 02:11:33;;;;;;;2.20;1.70;;;14.40;71.90;;;;;;2031878;29;20683;-65
2023/06/27 02:12:33;;;;;;;5.73;1.83;;;14.50;71.60;;;;;;2033262;29;20232;-65
2023/06/27 02:13:37;;;;;;;3.40;2.00;;;14.60;71.50;;;;;;2037077;29;20723;-65
2023/06/27 02:14:38;;;;;;;4.07;1.80;;;14.60;71.70;;;;;;2033113;29;20235;-65
2023/06/27 02:15:40;;;;;;;3.88;1.80;;;14.60;71.30;;;;;;2021908;29;20322;-65
2023/06/27 02:16:40;;;;;;;2.35;1.52;;;14.60;70.70;;;;;;2025950;29;20627;-65
2023/06/27 02:17:42;;;;;;;1.73;1.60;;;14.70;70.80;;;;;;2029709;29;20307;-65
2023/06/27 02:18:43;;;;;;;3.10;1.60;;;14.70;70.60;;;;;;2026412;29;20244;-66
2023/06/27 02:19:43;;;;;;;3.23;1.70;;;14.70;70.50;;;;;;2026365;29;20217;-66
2023/06/27 02:20:44;;;;;;;3.70;1.63;;;14.80;70.10;;;;;;2025832;29;20272;-66
2023/06/27 02:21:48;;;;;;;2.97;1.93;;;14.80;70.70;;;;;;2026782;29;20727;-66
2023/06/27 02:22:48;;;;;;;2.00;1.73;;;14.70;70.90;;;;;;2027606;29;20303;-66
2023/06/27 02:23:49;;;;;;;2.43;1.87;;;14.60;71.10;;;;;;2026641;29;20225;-66
2023/06/27 02:24:50;;;;;;;4.90;1.60;;;14.60;71.20;;;;;;2028482;29;20296;-64
2023/06/27 02:25:51;;;;;;;4.17;1.87;;;14.60;71.70;;;;;;2026656;29;20259;-64
2023/06/27 02:26:52;;;;;;;2.35;1.55;;;14.60;71.80;;;;;;2035622;29;20227;-64
2023/06/27 02:27:53;;;;;;;1.73;1.60;;;14.60;71.80;;;;;;2028196;29;20287;-64
2023/06/27 02:28:53;;;;;;;4.37;1.70;;;14.60;71.50;;;;;;2025645;29;20221;-64
2023/06/27 02:29:54;;;;;;;4.20;1.60;;;14.50;72.20;;;;;;2021612;29;20575;-64
2023/06/27 02:30:55;;;;;;;2.97;1.83;;;14.50;72.20;;;;;;2022873;29;20218;-64
2023/06/27 02:31:56;;;;;;;2.70;1.80;;;14.60;72.70;;;;;;2026023;29;20285;-64
2023/06/27 02:32:56;;;;;;;2.57;1.70;;;14.50;72.60;;;;;;2030368;29;20220;-64
2023/06/27 02:33:58;;;;;;;2.53;1.80;;;14.50;72.90;;;;;;2026931;29;20308;-66
2023/06/27 02:34:59;;;;;;;2.60;1.65;;;14.40;73.60;;;;;;2030375;29;20304;-64
2023/06/27 02:35:59;;;;;;;3.83;1.70;;;14.30;74.30;;;;;;2025839;29;20629;-66
2023/06/27 02:37:00;;;;;;;5.20;2.23;;;14.40;74.20;;;;;;2029328;29;20225;-66
2023/06/27 02:38:01;;;;;;;5.53;2.30;;;14.40;74.30;;;;;;2029110;29;20297;-67
2023/06/27 02:39:03;;;;;;;2.35;2.10;;;14.30;74.20;;;;;;2037976;29;20180;-67
2023/06/27 02:40:04;;;;;;;4.32;1.90;;;14.30;74.00;;;;;;2024948;29;20192;-66
2023/06/27 02:41:05;;;;;;;4.57;1.80;;;14.30;74.10;;;;;;2024608;29;20186;-66
2023/06/27 02:42:06;;;;;;;3.60;1.63;;;14.30;74.10;;;;;;2025446;29;20215;-66
2023/06/27 02:43:07;;;;;;;3.15;1.98;;;14.30;75.20;;;;;;2025043;29;20200;-66
2023/06/27 02:44:07;;;;;;;3.57;1.80;;;14.30;74.00;;;;;;2026244;29;20992;-66
2023/06/27 02:45:09;;;;;;;4.77;1.97;;;14.40;74.10;;;;;;2026603;29;20194;-66
2023/06/27 02:46:09;;;;;;;6.10;2.03;;;14.30;75.20;;;;;;2037863;29;20190;-66
2023/06/27 02:47:10;;;;;;;3.40;2.00;;;14.30;74.00;;;;;;2026088;29;20292;-66
2023/06/27 02:48:11;;;;;;;4.28;1.80;;;14.40;74.10;;;;;;2024739;29;20737;-66
2023/06/27 02:49:12;;;;;;;7.90;1.90;;;14.40;73.90;;;;;;2024374;29;20260;-66
2023/06/27 02:50:12;;;;;;;2.20;1.80;;;14.40;73.90;;;;;;2030357;29;20299;-66
2023/06/27 02:51:13;;;;;;;1.90;1.70;;;14.40;74.00;;;;;;2024363;29;20296;-66
2023/06/27 02:52:14;;;;;;;2.37;1.70;;;14.40;74.10;;;;;;2031413;29;20185;-66
2023/06/27 02:53:15;;;;;;;2.80;1.70;;;14.40;74.30;;;;;;2037982;29;20188;-66
2023/06/27 02:54:16;;;;;;;3.70;1.67;;;14.30;75.10;;;;;;2027549;29;20200;-66
2023/06/27 02:55:17;;;;;;;2.53;1.77;;;14.30;75.10;;;;;;2026698;29;20203;-66
2023/06/27 02:56:18;;;;;;;3.80;2.00;;;14.30;75.50;;;;;;2030596;29;20213;-66
2023/06/27 02:57:18;;;;;;;3.10;1.93;;;14.30;75.70;;;;;;2027003;29;20198;-66
2023/06/27 02:58:19;;;;;;;4.33;2.00;;;14.30;75.70;;;;;;2023600;29;20346;-66
2023/06/27 02:59:20;;;;;;;3.77;1.90;;;14.30;75.60;;;;;;2023011;29;20820;-66
2023/06/27 03:00:20;;;;;;;3.67;2.10;;;14.30;76.20;;;;;;2027251;29;20232;-66
2023/06/27 03:01:21;;;;;;;2.67;1.73;;;14.30;76.00;;;;;;2029842;29;20696;-66
2023/06/27 03:02:24;;;;;;;3.53;1.97;;;14.30;75.70;;;;;;2028018;29;20351;-66
2023/06/27 03:03:25;;;;;;;3.72;2.13;;;14.30;75.70;;;;;;2032176;29;20268;-66
2023/06/27 03:04:27;;;;;;;3.97;2.00;;;14.30;75.50;;;;;;2024913;29;20237;-66
2023/06/27 03:05:27;;;;;;;4.22;1.88;;;14.20;75.60;;;;;;2030216;29;20230;-66
2023/06/27 03:06:28;;;;;;;5.50;1.90;;;14.20;75.80;;;;;;2034338;29;20264;-66
2023/06/27 03:07:29;;;;;;;3.40;2.27;;;14.30;75.70;;;;;;2038130;29;20382;-66
2023/06/27 03:08:32;;;;;;;2.70;1.90;;;14.20;75.60;;;;;;2026385;29;20323;-66
2023/06/27 03:09:35;;;;;;;6.30;2.15;;;14.30;75.30;;;;;;2029835;29;20239;-66
2023/06/27 03:10:35;;;;;;;3.00;1.90;;;14.30;75.10;;;;;;2026327;29;20217;-66
2023/06/27 03:11:36;;;;;;;3.60;1.77;;;14.30;75.00;;;;;;2031144;29;20982;-66
2023/06/27 03:12:37;;;;;;;7.53;2.23;;;14.30;75.20;;;;;;2029918;29;20232;-66
2023/06/27 03:13:38;;;;;;;4.03;2.03;;;14.30;75.40;;;;;;2029843;29;20616;-66
2023/06/27 03:14:38;;;;;;;4.63;1.77;;;14.30;75.70;;;;;;2029985;29;20225;-66
2023/06/27 03:15:39;;;;;;;3.13;2.10;;;14.30;75.70;;;;;;2029495;29;20236;-66
2023/06/27 03:16:40;;;;;;;3.80;1.80;;;14.30;75.30;;;;;;2027156;29;20718;-66
2023/06/27 03:17:40;;;;;;;2.67;2.00;;;14.30;75.30;;;;;;2027346;29;20224;-66
2023/06/27 03:18:41;;;;;;;3.67;2.00;;;14.40;74.90;;;;;;2029164;29;20249;-66
2023/06/27 03:19:42;;;;;;;4.60;2.07;;;14.40;75.00;;;;;;2025924;29;20252;-66
2023/06/27 03:20:42;;;;;;;5.00;2.37;;;14.30;76.40;;;;;;2026552;29;20240;-66
2023/06/27 03:21:43;;;;;;;3.13;2.00;;;14.30;76.70;;;;;;2027869;29;20248;-66
2023/06/27 03:22:44;;;;;;;4.80;2.00;;;14.30;76.60;;;;;;2024851;29;20216;-66
2023/06/27 03:23:44;;;;;;;2.67;1.90;;;14.30;76.70;;;;;;2025197;29;20813;-66
2023/06/27 03:24:45;;;;;;;2.63;1.80;;;14.20;76.80;;;;;;2025315;29;20229;-66
2023/06/27 03:25:46;;;;;;;4.40;1.60;;;14.30;76.60;;;;;;2025411;29;20216;-66
2023/06/27 03:26:46;;;;;;;3.20;1.80;;;14.40;76.60;;;;;;2026053;29;20228;-66
2023/06/27 03:27:47;;;;;;;3.50;2.03;;;14.30;77.00;;;;;;2028977;29;20303;-66
2023/06/27 03:28:48;;;;;;;4.40;2.20;;;14.30;76.90;;;;;;2028520;29;20224;-66
2023/06/27 03:29:48;;;;;;;2.73;1.80;;;14.20;76.90;;;;;;2025488;29;20228;-66
2023/06/27 03:30:49;;;;;;;2.50;1.80;;;14.10;77.90;;;;;;2026530;29;20595;-66
2023/06/27 03:31:50;;;;;;;2.67;1.83;;;14.10;78.80;;;;;;2026063;29;20217;-66
2023/06/27 03:32:51;;;;;;;5.63;2.10;;;14.10;78.30;;;;;;2037768;29;20316;-66
2023/06/27 03:33:54;;;;;;;3.03;2.00;;;14.20;77.70;;;;;;2027674;29;20224;-66
2023/06/27 03:34:55;;;;;;;2.78;2.13;;;14.10;77.80;;;;;;2030844;29;20235;-66
2023/06/27 03:35:56;;;;;;;3.23;1.80;;;14.20;77.50;;;;;;2034839;29;20218;-66
2023/06/27 03:36:57;;;;;;;5.03;1.53;;;14.20;76.90;;;;;;2038254;29;20656;-64
2023/06/27 03:37:58;;;;;;;3.30;2.00;;;14.40;75.80;;;;;;2037561;29;20224;-66
2023/06/27 03:38:58;;;;;;;2.40;1.80;;;14.40;75.20;;;;;;2027343;29;20657;-66
2023/06/27 03:40:00;;;;;;;5.23;1.97;;;14.40;74.80;;;;;;2026562;29;20233;-66
2023/06/27 03:41:00;;;;;;;3.20;1.80;;;14.50;74.20;;;;;;2026608;29;20225;-66
2023/06/27 03:42:01;;;;;;;7.13;2.10;;;14.60;73.90;;;;;;2030286;29;20316;-67
2023/06/27 03:43:02;;;;;;;2.73;1.90;;;14.60;74.10;;;;;;2024879;29;20220;-67
2023/06/27 03:44:05;;;;;;;2.80;1.93;;;14.70;73.90;;;;;;2026792;29;20193;-67
2023/06/27 03:45:06;;;;;;;4.85;1.77;;;14.70;73.70;;;;;;2025499;29;20272;-66
2023/06/27 03:46:07;;;;;;;4.32;2.17;;;14.80;73.10;;;;;;2027812;29;21002;-66
2023/06/27 03:47:08;;;;;;;3.58;1.80;;;14.80;73.00;;;;;;2030109;29;20974;-67
2023/06/27 03:48:09;;;;;;;3.27;2.03;;;14.80;73.30;;;;;;2029949;29;20235;-66
2023/06/27 03:49:09;;;;;;;3.90;1.83;;;14.70;74.20;;;;;;2026238;29;20311;-66
2023/06/27 03:50:10;;;;;;;5.33;1.97;;;14.70;74.30;;;;;;2033927;29;20193;-66
2023/06/27 03:51:11;;;;;;;3.13;1.90;;;14.80;75.50;;;;;;2029716;29;20193;-66
2023/06/27 03:52:12;;;;;;;3.47;2.20;;;14.80;74.30;;;;;;2026215;29;20648;-66
2023/06/27 03:53:12;;;;;;;3.43;1.70;;;14.80;74.70;;;;;;2029730;29;20197;-66
2023/06/27 03:54:13;;;;;;;4.60;2.10;;;14.60;75.20;;;;;;2029745;29;20275;-67
2023/06/27 03:55:14;;;;;;;4.37;2.37;;;14.60;75.50;;;;;;2027054;29;20178;-64
2023/06/27 03:56:15;;;;;;;2.67;1.85;;;14.60;75.30;;;;;;2037089;29;20228;-65
2023/06/27 03:57:16;;;;;;;3.63;2.00;;;14.70;75.70;;;;;;2037431;29;20189;-64
2023/06/27 03:58:17;;;;;;;2.77;2.00;;;14.70;75.20;;;;;;2030935;28;20817;-66
2023/06/27 03:59:18;;;;;;;3.35;1.80;;;14.80;75.50;;;;;;2030676;29;20300;-66
2023/06/27 04:00:18;;;;;;;4.23;2.10;;;14.80;74.60;;;;;;2017024;29;20662;-66
2023/06/27 04:01:20;;;;;;;6.67;2.20;;;14.80;74.30;;;;;;2017081;29;20389;-66
2023/06/27 04:02:20;;;;;;;3.03;1.90;;;14.80;74.30;;;;;;2025264;29;20772;-66
2023/06/27 04:03:21;;;;;;;3.63;1.93;;;14.90;73.80;;;;;;2026047;29;20233;-66
2023/06/27 04:04:22;;;;;;;2.90;1.90;;;14.90;73.10;;;;;;2029660;29;20685;-66
2023/06/27 04:05:22;;;;;;;2.63;2.00;;;14.90;72.60;;;;;;2030178;29;20653;-66
2023/06/27 04:06:23;;;;;;;3.40;1.90;;;14.90;72.60;;;;;;2030556;29;20237;-66
2023/06/27 04:07:24;;;;;;;5.17;2.00;;;14.90;72.80;;;;;;2031183;29;20217;-66
2023/06/27 04:08:24;;;;;;;5.90;1.90;;;14.90;72.80;;;;;;2027166;29;20389;-66
2023/06/27 04:09:25;;;;;;;4.40;2.03;;;15.00;73.10;;;;;;2038060;29;20263;-65
2023/06/27 04:10:26;;;;;;;3.43;2.23;;;15.00;72.30;;;;;;2034117;29;20247;-65
2023/06/27 04:11:26;;;;;;;4.53;2.57;;;15.00;72.60;;;;;;2029991;29;20288;-65
2023/06/27 04:12:27;;;;;;;2.80;1.90;;;15.00;73.30;;;;;;2029980;29;20412;-65
2023/06/27 04:13:28;;;;;;;3.67;2.43;;;15.00;73.40;;;;;;2030198;29;20304;-66
2023/06/27 04:14:29;;;;;;;4.43;2.10;;;14.90;73.50;;;;;;2030170;29;20402;-65
2023/06/27 04:15:30;;;;;;;3.63;2.05;;;14.90;73.80;;;;;;2037835;29;20639;-65
2023/06/27 04:16:31;;;;;;;4.57;2.00;;;14.90;74.60;;;;;;2036345;29;20248;-65
2023/06/27 04:17:32;;;;;;;3.83;2.67;;;14.80;74.80;;;;;;2028043;29;20244;-65
2023/06/27 04:18:32;;;;;;;6.73;2.47;;;14.90;74.60;;;;;;2027826;29;20319;-65
2023/06/27 04:19:33;;;;;;;3.10;1.90;;;14.90;74.30;;;;;;2033465;29;20295;-65
2023/06/27 04:20:35;;;;;;;3.20;2.00;;;14.90;74.60;;;;;;2035627;29;20243;-65
2023/06/27 04:21:35;;;;;;;3.63;2.00;;;15.00;73.90;;;;;;2037601;29;20231;-65
2023/06/27 04:22:38;;;;;;;2.77;2.00;;;15.00;73.80;;;;;;2032375;29;20968;-65
2023/06/27 04:23:39;;;;;;;4.57;1.92;;;15.00;74.10;;;;;;2033806;29;20229;-65
2023/06/27 04:24:40;;;;;;;3.43;2.00;;;15.00;73.30;;;;;;2026744;29;20688;-65
2023/06/27 04:25:44;;;;;;;2.70;1.60;;;14.90;74.40;;;;;;2029604;29;20232;-65
2023/06/27 04:26:45;;;;;;;6.15;2.10;;;14.90;74.80;;;;;;2030958;29;20224;-65
2023/06/27 04:27:46;;;;;;;5.23;2.13;;;14.80;74.60;;;;;;2037927;29;20223;-65
2023/06/27 04:28:49;;;;;;;3.53;2.13;;;14.80;74.40;;;;;;2037772;29;20311;-65
2023/06/27 04:29:50;;;;;;;4.32;2.10;;;14.80;74.10;;;;;;2024041;29;20222;-66
2023/06/27 04:30:51;;;;;;;4.23;1.90;;;14.90;73.60;;;;;;2029567;29;20704;-65
2023/06/27 04:31:51;;;;;;;4.80;2.20;;;14.80;73.30;;;;;;2027810;29;20224;-65
2023/06/27 04:32:52;;;;;;;4.20;2.10;;;14.90;73.40;;;;;;2036501;29;20977;-65
2023/06/27 04:33:59;;;;;;;4.33;1.70;;;14.90;74.40;;;;;;2031445;29;20224;-65
2023/06/27 04:35:00;;;;;;;7.93;2.25;;;14.90;75.00;;;;;;2030731;29;20212;-66
2023/06/27 04:36:01;;;;;;;3.90;1.63;;;14.80;74.90;;;;;;2029261;29;20243;-66
2023/06/27 04:37:05;;;;;;;3.50;1.90;;;14.90;75.40;;;;;;2027491;29;20645;-65
2023/06/27 04:38:06;;;;;;;4.00;2.13;;;14.90;75.20;;;;;;2025375;29;20288;-66
2023/06/27 04:39:10;;;;;;;3.28;1.90;;;14.90;74.60;;;;;;2029822;29;20220;-66
2023/06/27 04:40:12;;;;;;;3.07;1.77;;;14.90;74.60;;;;;;2029160;29;20200;-66
2023/06/27 04:41:12;;;;;;;3.08;1.70;;;14.80;75.70;;;;;;2026856;29;20431;-65
2023/06/27 04:42:14;;;;;;;5.47;2.23;;;14.90;75.30;;;;;;2037741;29;20184;-65
2023/06/27 04:43:14;;;;;;;4.90;3.03;;;14.90;75.40;;;;;;2037039;29;20189;-65
2023/06/27 04:44:15;;;;;;;4.13;2.13;;;14.90;75.60;;;;;;2026054;29;20227;-66
2023/06/27 04:45:16;;;;;;;5.43;2.33;;;15.00;75.00;;;;;;2021834;29;20190;-65
2023/06/27 04:46:16;;;;;;;2.80;1.97;;;15.00;74.80;;;;;;2011385;29;20199;-66
2023/06/27 04:47:18;;;;;;;4.10;1.60;;;15.00;75.30;;;;;;2019718;29;20293;-65
2023/06/27 04:48:19;;;;;;;2.22;1.77;;;15.00;75.80;;;;;;2025592;29;20229;-65
2023/06/27 04:49:20;;;;;;;2.87;1.93;;;15.00;75.30;;;;;;2034235;29;20729;-66
2023/06/27 04:50:20;;;;;;;3.10;2.03;;;15.00;74.60;;;;;;2025528;29;20298;-66
2023/06/27 04:51:32;;;;;;;2.90;1.90;;;15.00;75.20;;;;;;2024077;29;20297;-66
2023/06/27 04:52:32;;;;;;;3.33;2.10;;;15.00;75.00;;;;;;2032345;29;20231;-66
2023/06/27 04:53:34;;;;;;;2.97;2.00;;;14.90;75.20;;;;;;2036679;29;20495;-66
2023/06/27 04:54:35;;;;;;;4.97;1.80;;;14.90;74.90;;;;;;2025880;29;20303;-66
2023/06/27 04:55:36;;;;;;;5.90;2.13;;;14.90;74.60;;;;;;2024448;29;20221;-66
2023/06/27 04:56:37;;;;;;;5.03;2.17;;;15.00;74.70;;;;;;2025427;29;20232;-66
2023/06/27 04:57:37;;;;;;;6.73;1.90;;;15.10;74.50;;;;;;2037598;29;20703;-66
2023/06/27 04:58:38;;;;;;;7.53;2.63;;;15.10;74.00;;;;;;2035170;29;20221;-66
2023/06/27 04:59:39;;;;;;;3.43;2.00;;;15.10;74.50;;;;;;2026172;29;20240;-66
2023/06/27 05:00:40;;;;;;;5.43;2.20;;;15.10;75.00;;;;;;2023505;29;20297;-66
2023/06/27 05:01:40;;;;;;;2.60;1.60;;;15.10;74.70;;;;;;2033386;29;20242;-66
2023/06/27 05:02:41;;;;;;;4.70;2.57;;;15.00;74.90;;;;;;2025591;29;20472;-65
2023/06/27 05:03:42;;;;;;;8.93;2.20;;;15.00;74.50;;;;;;2021867;29;20229;-65
2023/06/27 05:04:42;;;;;;;5.53;2.10;;;15.00;75.00;;;;;;2029636;29;20228;-65
2023/06/27 05:05:44;;;;;;;3.50;1.60;;;15.10;74.50;;;;;;2037512;29;20220;-65
2023/06/27 05:06:44;;;;;;;3.72;2.03;;;15.20;74.00;;;;;;2028206;29;20279;-66
2023/06/27 05:07:45;;;;;;;4.30;2.30;;;15.20;73.30;;;;;;2016417;29;20221;-65
2023/06/27 05:08:47;;;;;;;6.07;2.10;;;15.20;73.10;;;;;;2019476;29;20779;-65
2023/06/27 05:09:48;;;;;;;3.05;1.95;;;15.20;73.60;;;;;;2021678;29;21273;-65
2023/06/27 05:10:49;;;;;;;4.80;2.20;;;15.30;73.30;;;;;;2022877;29;20233;-65
2023/06/27 05:11:49;;;;;;;4.77;2.23;;;15.30;73.50;;;;;;2024012;29;20713;-65
2023/06/27 05:12:50;;;;;;;5.40;2.03;;;15.30;73.30;;;;;;2015241;29;20297;-64
2023/06/27 05:13:51;;;;;;;4.93;2.03;;;15.30;72.60;;;;;;2028732;29;20315;-64
2023/06/27 05:14:52;;;;;;;3.60;2.77;;;15.30;73.10;;;;;;2021519;29;20320;-65
2023/06/27 05:15:52;;;;;;;3.43;1.70;;;15.30;73.50;;;;;;2023218;29;20229;-65
2023/06/27 05:16:53;;;;;;;11.13;2.40;;;15.30;73.70;;;;;;2029925;29;20316;-64
2023/06/27 05:18:15;;;;;;;3.03;1.60;;;15.30;73.40;;;;;;2026645;29;20221;-64
2023/06/27 05:19:15;;;;;;;3.53;1.90;;;15.30;73.10;;;;;;2027709;29;20734;-64
2023/06/27 05:20:17;;;;;;;5.40;2.20;;;15.40;73.00;;;;;;2030347;29;20219;-65
2023/06/27 05:21:18;;;;;;;4.88;2.00;;;15.40;72.70;;;;;;2023655;29;20213;-65
2023/06/27 05:22:18;;;;;;;3.70;2.20;;;15.40;71.50;;;;;;2023358;29;20193;-64
2023/06/27 05:23:21;;;;;;;5.17;2.00;;;15.50;71.00;;;;;;2029790;29;20653;-65